TCISK LTAC-LTFH
Flight info
| Callsign | TCISK |
|---|---|
| Flight time | 0h 36m |
| Altitude | 29000 |
| Route | EKMEK1D/21R EKMEK DCT ERGUN UW71 HAVZA |
| Aircraft | C750/M-SBDE3FGHRWXY/S |
Departure
| Time | 2026-04-23 19:02 |
|---|---|
| Airport | Esenboğa International Airport (LTAC) |
Arrival
| Time | 2026-04-23 19:38 |
|---|---|
| Airport | Samsun-Çarşamba Airport (LTFH) |
| Time | Latitude | Longitude | Altitude | Speed | Heading |
|---|---|---|---|---|---|
| 2026-04-23 18:40 | 40.11900 | 32.99226 | 3109 ft | 0 kts | 341° |
| 2026-04-23 18:52 | 40.11903 | 32.99228 | 3109 ft | 0 kts | 22° |
| 2026-04-23 18:52 | 40.11903 | 32.99241 | 3109 ft | 4 kts | 111° |
| 2026-04-23 18:53 | 40.11842 | 32.99255 | 3109 ft | 10 kts | 183° |
| 2026-04-23 18:53 | 40.11809 | 32.99218 | 3109 ft | 5 kts | 244° |
| 2026-04-23 18:53 | 40.11805 | 32.99206 | 3109 ft | 0 kts | 246° |
| 2026-04-23 18:53 | 40.11799 | 32.99187 | 3109 ft | 5 kts | 246° |
| 2026-04-23 18:54 | 40.11788 | 32.99156 | 3109 ft | 2 kts | 244° |
| 2026-04-23 18:54 | 40.11775 | 32.99122 | 3109 ft | 6 kts | 246° |
| 2026-04-23 18:54 | 40.11781 | 32.99080 | 3109 ft | 5 kts | 304° |
| 2026-04-23 18:54 | 40.11810 | 32.99040 | 3110 ft | 8 kts | 332° |
| 2026-04-23 18:55 | 40.11866 | 32.99060 | 3110 ft | 10 kts | 36° |
| 2026-04-23 18:55 | 40.11934 | 32.99125 | 3111 ft | 14 kts | 36° |
| 2026-04-23 18:55 | 40.12020 | 32.99209 | 3112 ft | 17 kts | 36° |
| 2026-04-23 18:55 | 40.12124 | 32.99309 | 3114 ft | 20 kts | 36° |
| 2026-04-23 18:56 | 40.12195 | 32.99377 | 3114 ft | 19 kts | 36° |
| 2026-04-23 18:56 | 40.12320 | 32.99496 | 3116 ft | 15 kts | 36° |
| 2026-04-23 18:56 | 40.12400 | 32.99573 | 3116 ft | 13 kts | 36° |
| 2026-04-23 18:56 | 40.12471 | 32.99640 | 3118 ft | 12 kts | 36° |
| 2026-04-23 18:57 | 40.12538 | 32.99703 | 3119 ft | 16 kts | 36° |
| 2026-04-23 18:57 | 40.12675 | 32.99835 | 3119 ft | 33 kts | 36° |
| 2026-04-23 18:57 | 40.12894 | 33.00045 | 3121 ft | 40 kts | 36° |
| 2026-04-23 18:57 | 40.13093 | 33.00234 | 3123 ft | 29 kts | 36° |
| 2026-04-23 18:58 | 40.13246 | 33.00382 | 3124 ft | 26 kts | 36° |
| 2026-04-23 18:58 | 40.13386 | 33.00514 | 3127 ft | 24 kts | 36° |
| 2026-04-23 18:58 | 40.13512 | 33.00635 | 3128 ft | 21 kts | 36° |
| 2026-04-23 18:58 | 40.13627 | 33.00745 | 3129 ft | 19 kts | 36° |
| 2026-04-23 18:59 | 40.13729 | 33.00841 | 3130 ft | 17 kts | 36° |
| 2026-04-23 18:59 | 40.13821 | 33.00929 | 3131 ft | 15 kts | 36° |
| 2026-04-23 18:59 | 40.13903 | 33.01008 | 3132 ft | 14 kts | 36° |
| 2026-04-23 18:59 | 40.13975 | 33.01072 | 3132 ft | 11 kts | 24° |
| 2026-04-23 19:00 | 40.14064 | 33.01057 | 3133 ft | 15 kts | 325° |
| 2026-04-23 19:00 | 40.14111 | 33.00946 | 3132 ft | 13 kts | 286° |
| 2026-04-23 19:00 | 40.14156 | 33.00854 | 3132 ft | 12 kts | 306° |
| 2026-04-23 19:00 | 40.14212 | 33.00750 | 3132 ft | 12 kts | 298° |
| 2026-04-23 19:01 | 40.14187 | 33.00668 | 3132 ft | 7 kts | 212° |
| 2026-04-23 19:01 | 40.14177 | 33.00658 | 3132 ft | 0 kts | 216° |
| 2026-04-23 19:01 | 40.14174 | 33.00655 | 3132 ft | 4 kts | 216° |
| 2026-04-23 19:01 | 40.13938 | 33.00430 | 3130 ft | 99 kts | 216° |
| 2026-04-23 19:02 | 40.13457 | 32.99970 | 3201 ft | 141 kts | 218° |
| 2026-04-23 19:02 | 40.12376 | 32.98872 | 4044 ft | 156 kts | 220° |
| 2026-04-23 19:02 | 40.11447 | 32.97999 | 4606 ft | 176 kts | 216° |
| 2026-04-23 19:02 | 40.10415 | 32.97090 | 5310 ft | 182 kts | 216° |
| 2026-04-23 19:03 | 40.09309 | 32.96056 | 5802 ft | 210 kts | 218° |
| 2026-04-23 19:03 | 40.08057 | 32.94863 | 6400 ft | 236 kts | 218° |
| 2026-04-23 19:03 | 40.06672 | 32.93550 | 7125 ft | 251 kts | 218° |
| 2026-04-23 19:03 | 40.05260 | 32.92220 | 8372 ft | 250 kts | 218° |
| 2026-04-23 19:04 | 40.03845 | 32.90881 | 9525 ft | 254 kts | 219° |
| 2026-04-23 19:04 | 40.02369 | 32.89582 | 10458 ft | 262 kts | 211° |
| 2026-04-23 19:04 | 40.00480 | 32.89067 | 10716 ft | 301 kts | 181° |
| 2026-04-23 19:04 | 39.98362 | 32.89909 | 10809 ft | 340 kts | 155° |
| 2026-04-23 19:05 | 39.96309 | 32.91672 | 11093 ft | 362 kts | 146° |
| 2026-04-23 19:05 | 39.94309 | 32.93685 | 11920 ft | 365 kts | 146° |
| 2026-04-23 19:05 | 39.92232 | 32.95627 | 12608 ft | 369 kts | 150° |
| 2026-04-23 19:05 | 39.89972 | 32.97186 | 13236 ft | 368 kts | 163° |
| 2026-04-23 19:06 | 39.87793 | 32.99052 | 13845 ft | 389 kts | 140° |
| 2026-04-23 19:06 | 39.86344 | 33.02074 | 14546 ft | 404 kts | 114° |
| 2026-04-23 19:06 | 39.85869 | 33.05714 | 15176 ft | 414 kts | 95° |
| 2026-04-23 19:06 | 39.85940 | 33.09480 | 15824 ft | 419 kts | 88° |
| 2026-04-23 19:07 | 39.86162 | 33.13294 | 16431 ft | 425 kts | 87° |
| 2026-04-23 19:07 | 39.86432 | 33.17124 | 16931 ft | 429 kts | 87° |
| 2026-04-23 19:07 | 39.86735 | 33.21082 | 16956 ft | 451 kts | 86° |
| 2026-04-23 19:07 | 39.87059 | 33.25230 | 16958 ft | 470 kts | 86° |
| 2026-04-23 19:08 | 39.87395 | 33.29493 | 16951 ft | 470 kts | 86° |
| 2026-04-23 19:08 | 39.87722 | 33.33546 | 16958 ft | 442 kts | 86° |
| 2026-04-23 19:08 | 39.88044 | 33.37564 | 16941 ft | 450 kts | 86° |
| 2026-04-23 19:08 | 39.88364 | 33.41628 | 16933 ft | 453 kts | 86° |
| 2026-04-23 19:09 | 39.88683 | 33.45713 | 16938 ft | 454 kts | 86° |
| 2026-04-23 19:09 | 39.89003 | 33.49819 | 17294 ft | 455 kts | 86° |
| 2026-04-23 19:09 | 39.89322 | 33.53762 | 18706 ft | 438 kts | 86° |
| 2026-04-23 19:09 | 39.89985 | 33.57684 | 19180 ft | 450 kts | 73° |
| 2026-04-23 19:10 | 39.91187 | 33.61456 | 19837 ft | 454 kts | 62° |
| 2026-04-23 19:10 | 39.92863 | 33.64958 | 20453 ft | 457 kts | 53° |
| 2026-04-23 19:10 | 39.94689 | 33.68374 | 21113 ft | 462 kts | 53° |
| 2026-04-23 19:10 | 39.96518 | 33.71844 | 21726 ft | 468 kts | 53° |
| 2026-04-23 19:11 | 39.98365 | 33.75366 | 22342 ft | 473 kts | 53° |
| 2026-04-23 19:11 | 40.00239 | 33.78917 | 22977 ft | 478 kts | 52° |
| 2026-04-23 19:11 | 40.02139 | 33.82505 | 23584 ft | 483 kts | 52° |
| 2026-04-23 19:11 | 40.04056 | 33.86143 | 23929 ft | 493 kts | 53° |
| 2026-04-23 19:12 | 40.05374 | 33.88657 | 24262 ft | 494 kts | 53° |
| 2026-04-23 19:12 | 40.07297 | 33.92335 | 25103 ft | 491 kts | 53° |
| 2026-04-23 19:12 | 40.09244 | 33.96041 | 25528 ft | 498 kts | 52° |
| 2026-04-23 19:12 | 40.11211 | 33.99780 | 26093 ft | 501 kts | 52° |
| 2026-04-23 19:13 | 40.13186 | 34.03556 | 26624 ft | 505 kts | 53° |
| 2026-04-23 19:13 | 40.15171 | 34.07363 | 27169 ft | 509 kts | 53° |
| 2026-04-23 19:13 | 40.17176 | 34.11202 | 27715 ft | 513 kts | 52° |
| 2026-04-23 19:13 | 40.19198 | 34.15074 | 28267 ft | 518 kts | 52° |
| 2026-04-23 19:14 | 40.21213 | 34.18939 | 28746 ft | 524 kts | 52° |
| 2026-04-23 19:14 | 40.23280 | 34.22916 | 28936 ft | 536 kts | 53° |
| 2026-04-23 19:14 | 40.25405 | 34.27003 | 28939 ft | 551 kts | 53° |
| 2026-04-23 19:14 | 40.27584 | 34.31202 | 28942 ft | 564 kts | 53° |
| 2026-04-23 19:15 | 40.29811 | 34.35502 | 28942 ft | 576 kts | 53° |
| 2026-04-23 19:15 | 40.34386 | 34.44359 | 28939 ft | 587 kts | 53° |
| 2026-04-23 19:16 | 40.38933 | 34.53176 | 28943 ft | 588 kts | 53° |
| 2026-04-23 19:16 | 40.43506 | 34.62075 | 28924 ft | 588 kts | 53° |
| 2026-04-23 19:17 | 40.50353 | 34.75438 | 28936 ft | 588 kts | 53° |
| 2026-04-23 19:17 | 40.54916 | 34.84378 | 28940 ft | 591 kts | 53° |
| 2026-04-23 19:18 | 40.59490 | 34.93365 | 28944 ft | 592 kts | 53° |
| 2026-04-23 19:18 | 40.64061 | 35.02373 | 28952 ft | 592 kts | 54° |
| 2026-04-23 19:19 | 40.70921 | 35.15942 | 28945 ft | 595 kts | 54° |
| 2026-04-23 19:20 | 40.77791 | 35.29584 | 28956 ft | 596 kts | 54° |
| 2026-04-23 19:20 | 40.82368 | 35.38711 | 28970 ft | 596 kts | 54° |
| 2026-04-23 19:21 | 40.89223 | 35.52426 | 28971 ft | 596 kts | 54° |
| 2026-04-23 19:22 | 40.93905 | 35.61425 | 28926 ft | 589 kts | 56° |
| 2026-04-23 19:22 | 40.96006 | 35.65853 | 28678 ft | 550 kts | 55° |
| 2026-04-23 19:22 | 41.00124 | 35.74050 | 27895 ft | 529 kts | 54° |
| 2026-04-23 19:23 | 41.02105 | 35.78136 | 27438 ft | 526 kts | 56° |
| 2026-04-23 19:23 | 41.04049 | 35.82220 | 26949 ft | 521 kts | 56° |
| 2026-04-23 19:23 | 41.06008 | 35.86241 | 26382 ft | 517 kts | 55° |
| 2026-04-23 19:24 | 41.09642 | 35.94425 | 25031 ft | 533 kts | 67° |
| 2026-04-23 19:24 | 41.10922 | 35.99001 | 24958 ft | 517 kts | 71° |
| 2026-04-23 19:24 | 41.13400 | 36.08093 | 24984 ft | 529 kts | 71° |
| 2026-04-23 19:25 | 41.15890 | 36.17281 | 24668 ft | 519 kts | 72° |
| 2026-04-23 19:25 | 41.18240 | 36.25984 | 23729 ft | 496 kts | 72° |
| 2026-04-23 19:26 | 41.20533 | 36.34512 | 22031 ft | 486 kts | 72° |
| 2026-04-23 19:26 | 41.21663 | 36.38721 | 20974 ft | 478 kts | 72° |
| 2026-04-23 19:27 | 41.23844 | 36.46880 | 19000 ft | 461 kts | 71° |
| 2026-04-23 19:27 | 41.26883 | 36.58273 | 15647 ft | 410 kts | 70° |
| 2026-04-23 19:28 | 41.28692 | 36.65189 | 13474 ft | 361 kts | 71° |
| 2026-04-23 19:28 | 41.29099 | 36.71324 | 11087 ft | 319 kts | 105° |
| 2026-04-23 19:29 | 41.28246 | 36.73954 | 9967 ft | 304 kts | 124° |
| 2026-04-23 19:29 | 41.25847 | 36.78355 | 7713 ft | 285 kts | 128° |
| 2026-04-23 19:30 | 41.23678 | 36.82290 | 6418 ft | 239 kts | 128° |
| 2026-04-23 19:30 | 41.22685 | 36.84085 | 6314 ft | 242 kts | 128° |
| 2026-04-23 19:30 | 41.20078 | 36.86526 | 5661 ft | 234 kts | 174° |
| 2026-04-23 19:31 | 41.18497 | 36.86208 | 5373 ft | 231 kts | 204° |
| 2026-04-23 19:31 | 41.17194 | 36.84992 | 5133 ft | 231 kts | 221° |
| 2026-04-23 19:31 | 41.15989 | 36.83596 | 4853 ft | 230 kts | 221° |
| 2026-04-23 19:31 | 41.14790 | 36.82229 | 4541 ft | 218 kts | 221° |
| 2026-04-23 19:32 | 41.13663 | 36.80960 | 4256 ft | 204 kts | 221° |
| 2026-04-23 19:32 | 41.12644 | 36.79633 | 3930 ft | 208 kts | 236° |
| 2026-04-23 19:32 | 41.12272 | 36.77833 | 3656 ft | 203 kts | 269° |
| 2026-04-23 19:32 | 41.12660 | 36.76055 | 3398 ft | 202 kts | 301° |
| 2026-04-23 19:33 | 41.13494 | 36.74542 | 3217 ft | 203 kts | 307° |
| 2026-04-23 19:33 | 41.14334 | 36.73036 | 3034 ft | 200 kts | 306° |
| 2026-04-23 19:33 | 41.15918 | 36.70154 | 2469 ft | 168 kts | 306° |
| 2026-04-23 19:34 | 41.16623 | 36.68983 | 2228 ft | 156 kts | 313° |
| 2026-04-23 19:34 | 41.17307 | 36.68048 | 2038 ft | 131 kts | 313° |
| 2026-04-23 19:34 | 41.18557 | 36.66308 | 1722 ft | 131 kts | 313° |
| 2026-04-23 19:35 | 41.19184 | 36.65432 | 1546 ft | 131 kts | 313° |
| 2026-04-23 19:35 | 41.19810 | 36.64557 | 1366 ft | 130 kts | 312° |
| 2026-04-23 19:35 | 41.20416 | 36.63715 | 1182 ft | 122 kts | 313° |
| 2026-04-23 19:35 | 41.20994 | 36.62912 | 1018 ft | 119 kts | 313° |
| 2026-04-23 19:36 | 41.21565 | 36.62119 | 856 ft | 119 kts | 313° |
| 2026-04-23 19:36 | 41.22144 | 36.61319 | 718 ft | 121 kts | 313° |
| 2026-04-23 19:36 | 41.22754 | 36.60501 | 624 ft | 130 kts | 313° |
| 2026-04-23 19:36 | 41.23382 | 36.59607 | 432 ft | 133 kts | 312° |
| 2026-04-23 19:37 | 41.23995 | 36.58735 | 228 ft | 127 kts | 311° |
| 2026-04-23 19:37 | 41.24606 | 36.57880 | 49 ft | 127 kts | 313° |
| 2026-04-23 19:37 | 41.25178 | 36.57083 | 22 ft | 110 kts | 313° |
| 2026-04-23 19:37 | 41.25607 | 36.56489 | 22 ft | 61 kts | 313° |
| 2026-04-23 19:38 | 41.25880 | 36.56107 | 56 ft | 51 kts | 314° |
| 2026-04-23 19:38 | 41.26019 | 36.55909 | 21 ft | 13 kts | 298° |
| 2026-04-23 19:38 | 41.25985 | 36.55803 | 36 ft | 12 kts | 223° |
| 2026-04-23 19:38 | 41.25925 | 36.55728 | 55 ft | 11 kts | 224° |
| 2026-04-23 19:39 | 41.25869 | 36.55655 | 36 ft | 11 kts | 226° |
| 2026-04-23 19:39 | 41.25830 | 36.55605 | 41 ft | 6 kts | 225° |
| 2026-04-23 19:39 | 41.25825 | 36.55598 | 35 ft | 0 kts | 224° |